Flight Number: EUR2433 Duration: 1:15
Departure: Geneva Cointrin Airport (LSGG) at 07:30 Distance: 462 Nm
Arrival: Split (LDSP) at 08:45 Equipment: A321

Weather Information
Geneve-Cointrin, Switzerland (LSGG) 46-15N 006-08E 416M Sep 21, 2017 - 05:20 PM EDT / 2017.09.21 2120 UTC
Wind: Variable at 1 MPH (1 KT):0
Visibility: greater than 7 mile(s):0 Temperature: 50 F (10 C) Dew Point: 48 F (9 C) Relative Humidity: 93% Pressure (altimeter): 30.15 in. Hg (1021 hPa)
ob: LSGG 212120Z AUTO VRB01KT CAVOK 10/09 Q1021 NOSIG cycle: 21
Sunrise: 05:25 Sunset: 17:31 (UTC)

Split / Resnik, Croatia (LDSP) 43-32N 016-18E 21M Sep 21, 2017 - 05:00 PM EDT / 2017.09.21 2100 UTC
Wind: from the NW (310 degrees) at 12 MPH (10 KT):0
Visibility: greater than 7 mile(s):0 Temperature: 62 F (17 C) Dew Point: 44 F (7 C) Relative Humidity: 51% Pressure (altimeter): 30.06 in. Hg (1018 hPa)
ob: LDSP 212100Z 31010KT CAVOK 17/07 Q1018 NOSIG cycle: 21
Sunrise: 04:44 Sunset: 16:50 (UTC)

TAF:2017/09/21 18:28 TAF LDSP 211725Z 2118/2218 34006KT CAVOK TX23/2212Z TN13/2203Z BECMG 2200/2202 05008KT BECMG 2210/2212 23008KT BECMG 2215/2217 32006KT

Previous Pireps for this route
Date Aircraft Flight time Fuel used Landing rate On time
2016-04-06A32101.2812708-258No
2016-08-28A32101.419894-217No
(pireps marked green are flown by you)

Route map